Time;durP1;ratioP1;P1;durP2;ratioP2;P2;SDS_P1;SDS_P2;PMS_P1;PMS_P2;Temp;Humidity;BMP_temperature;BMP_pressure;BME280_temperature;BME280_humidity;BME280_pressure;Samples;Min_cycle;Max_cycle;Signal;HPM_P1;HPM_P2
2022/08/29 00:00:28;;;;;;;2.25;1.60;;;18.70;53.50;;;;;;943197;149;27403;-74
2022/08/29 00:02:55;;;;;;;1.95;1.62;;;18.70;53.60;;;;;;943946;149;27385;-74
2022/08/29 00:05:21;;;;;;;4.30;1.40;;;18.60;53.70;;;;;;942419;149;27334;-74
2022/08/29 00:07:48;;;;;;;3.02;1.57;;;18.60;53.80;;;;;;941816;149;27326;-74
2022/08/29 00:10:14;;;;;;;2.25;1.70;;;18.50;53.80;;;;;;943894;149;27310;-74
2022/08/29 00:12:41;;;;;;;1.60;1.50;;;18.50;53.90;;;;;;944541;149;27443;-75
2022/08/29 00:15:08;;;;;;;3.40;1.80;;;18.50;54.00;;;;;;942244;149;27330;-74
2022/08/29 00:17:34;;;;;;;1.95;1.72;;;18.40;54.10;;;;;;943175;149;27309;-74
2022/08/29 00:20:01;;;;;;;2.50;1.60;;;18.40;54.80;;;;;;943298;149;27337;-74
2022/08/29 00:22:27;;;;;;;2.22;1.90;;;18.30;54.30;;;;;;943600;149;27479;-74
2022/08/29 00:24:54;;;;;;;1.90;1.70;;;18.30;54.30;;;;;;943184;149;27478;-74
2022/08/29 00:27:21;;;;;;;2.08;1.47;;;18.30;54.60;;;;;;943347;149;27361;-74
2022/08/29 00:29:47;;;;;;;2.12;1.50;;;18.20;54.50;;;;;;943333;149;27360;-73
2022/08/29 00:32:14;;;;;;;2.95;1.42;;;18.20;54.60;;;;;;943077;149;27353;-74
2022/08/29 00:34:40;;;;;;;3.25;2.00;;;18.20;54.60;;;;;;943163;149;27430;-74
2022/08/29 00:37:07;;;;;;;2.37;1.45;;;18.20;54.70;;;;;;943987;149;27467;-74
2022/08/29 00:39:34;;;;;;;2.35;1.62;;;18.10;54.80;;;;;;941829;149;27775;-74
2022/08/29 00:42:00;;;;;;;2.00;1.50;;;18.10;54.90;;;;;;943332;149;27474;-74
2022/08/29 00:44:27;;;;;;;4.12;1.95;;;18.10;55.00;;;;;;942894;149;27333;-73
2022/08/29 00:46:53;;;;;;;2.22;1.57;;;18.10;55.70;;;;;;943364;149;27418;-74
2022/08/29 00:49:29;;;;;;;3.60;2.20;;;18.00;55.20;;;;;;942001;149;27333;-74
2022/08/29 00:51:56;;;;;;;3.05;1.65;;;18.00;55.30;;;;;;940130;149;27816;-74
2022/08/29 00:54:22;;;;;;;3.10;1.60;;;18.00;55.30;;;;;;942660;149;27391;-74
2022/08/29 00:56:48;;;;;;;2.15;1.50;;;17.90;56.00;;;;;;943239;149;27692;-74
2022/08/29 00:59:17;;;;;;;2.62;1.55;;;17.90;55.40;;;;;;943365;149;27350;-74
2022/08/29 01:01:44;;;;;;;3.12;2.00;;;17.90;55.50;;;;;;944100;149;27499;-74
2022/08/29 01:04:10;;;;;;;3.80;2.35;;;17.80;55.60;;;;;;943641;149;27325;-74
2022/08/29 01:06:37;;;;;;;2.62;1.80;;;17.80;55.80;;;;;;943750;149;27329;-74
2022/08/29 01:09:04;;;;;;;2.58;1.20;;;17.80;55.80;;;;;;942278;149;27398;-73
2022/08/29 01:14:16;;;;;;;4.17;1.57;;;17.70;55.90;;;;;;944492;149;27376;-74
2022/08/29 01:16:42;;;;;;;4.42;2.40;;;17.60;55.90;;;;;;942321;149;27465;-74
2022/08/29 01:19:33;;;;;;;5.30;1.87;;;17.60;56.10;;;;;;943064;149;27415;-73
2022/08/29 01:22:00;;;;;;;3.27;1.62;;;17.50;56.20;;;;;;942939;149;27423;-76
2022/08/29 01:24:50;;;;;;;4.25;1.60;;;17.50;56.20;;;;;;940467;149;27346;-76
2022/08/29 01:27:14;;;;;;;4.70;1.67;;;17.40;56.40;;;;;;942008;149;27332;-75
2022/08/29 01:29:40;;;;;;;1.92;1.65;;;17.40;56.40;;;;;;942709;149;27365;-74
2022/08/29 01:32:07;;;;;;;1.90;1.70;;;17.30;56.60;;;;;;943218;149;27357;-74
2022/08/29 01:34:33;;;;;;;1.70;1.40;;;17.30;56.80;;;;;;942700;149;27341;-74
2022/08/29 01:37:00;;;;;;;1.97;1.53;;;17.30;56.80;;;;;;944351;149;27337;-74
2022/08/29 01:39:27;;;;;;;3.67;1.80;;;17.20;56.90;;;;;;941701;149;27349;-74
2022/08/29 01:41:53;;;;;;;2.07;1.33;;;17.10;57.00;;;;;;942946;149;27426;-75
2022/08/29 01:44:20;;;;;;;3.00;1.67;;;17.10;57.20;;;;;;942782;149;27446;-74
2022/08/29 01:46:46;;;;;;;2.33;1.50;;;17.10;57.20;;;;;;943250;149;28097;-74
2022/08/29 01:49:13;;;;;;;3.60;1.60;;;17.10;57.40;;;;;;942278;149;27334;-74
2022/08/29 01:51:40;;;;;;;2.47;1.90;;;17.00;57.40;;;;;;943920;149;27423;-74
2022/08/29 01:54:06;;;;;;;3.22;1.72;;;17.00;57.50;;;;;;944317;149;27399;-74
2022/08/29 01:56:33;;;;;;;2.40;1.47;;;17.00;57.60;;;;;;942854;149;27446;-74
2022/08/29 01:58:59;;;;;;;3.33;1.63;;;16.90;57.60;;;;;;926215;150;27387;-74
2022/08/29 02:01:26;;;;;;;5.83;1.93;;;16.90;57.70;;;;;;943345;148;27325;-74
2022/08/29 02:03:52;;;;;;;2.40;1.60;;;16.90;57.80;;;;;;941451;149;27461;-73
2022/08/29 02:06:20;;;;;;;1.77;1.27;;;16.80;58.00;;;;;;941694;149;27737;-74
2022/08/29 02:08:46;;;;;;;4.77;2.00;;;16.80;57.90;;;;;;942084;149;27367;-73
2022/08/29 02:11:12;;;;;;;2.65;1.80;;;16.80;58.20;;;;;;941829;149;27843;-73
2022/08/29 02:13:39;;;;;;;3.20;1.63;;;16.70;58.10;;;;;;941733;149;28666;-73
2022/08/29 02:16:05;;;;;;;2.37;1.40;;;16.70;58.30;;;;;;941318;149;27334;-74
2022/08/29 02:18:32;;;;;;;2.33;1.53;;;16.70;58.30;;;;;;940936;149;27418;-73
2022/08/29 02:20:59;;;;;;;2.37;1.70;;;16.70;58.40;;;;;;943350;149;27334;-74
2022/08/29 02:23:25;;;;;;;2.33;1.60;;;16.70;58.50;;;;;;940930;149;27352;-74
2022/08/29 02:25:52;;;;;;;3.53;1.90;;;16.70;58.50;;;;;;942210;149;28426;-73
2022/08/29 02:28:18;;;;;;;1.90;1.67;;;16.70;58.60;;;;;;941241;149;27687;-74
2022/08/29 02:30:45;;;;;;;2.20;1.47;;;16.60;58.50;;;;;;940497;149;27353;-75
2022/08/29 02:33:14;;;;;;;4.57;1.90;;;16.60;58.50;;;;;;940995;149;27334;-74
2022/08/29 02:35:41;;;;;;;2.33;1.70;;;16.60;58.70;;;;;;942251;149;27470;-74
2022/08/29 02:38:07;;;;;;;2.80;1.80;;;16.60;58.70;;;;;;941157;149;27952;-74
2022/08/29 02:40:34;;;;;;;1.90;1.70;;;16.60;58.80;;;;;;942246;149;27389;-75
2022/08/29 02:43:01;;;;;;;2.00;1.37;;;16.50;58.80;;;;;;940761;149;27329;-74
2022/08/29 02:45:27;;;;;;;1.97;1.60;;;16.50;58.90;;;;;;942170;149;27482;-74
2022/08/29 02:47:54;;;;;;;2.97;1.63;;;16.50;59.00;;;;;;941612;149;27467;-75
2022/08/29 02:50:20;;;;;;;4.27;2.13;;;16.40;59.00;;;;;;941012;149;27455;-74
2022/08/29 02:52:47;;;;;;;1.75;1.50;;;16.40;59.10;;;;;;942244;149;27407;-74
2022/08/29 02:55:14;;;;;;;2.10;1.87;;;16.40;59.20;;;;;;941963;149;27401;-74
2022/08/29 02:57:40;;;;;;;3.23;1.70;;;16.30;59.30;;;;;;942239;149;27921;-74
2022/08/29 03:00:11;;;;;;;2.37;1.70;;;16.30;59.30;;;;;;940786;149;27435;-75
2022/08/29 03:02:36;;;;;;;3.53;1.63;;;16.30;59.40;;;;;;941805;149;27466;-74
2022/08/29 03:05:03;;;;;;;1.77;1.67;;;16.20;59.50;;;;;;941207;149;27501;-74
2022/08/29 03:07:30;;;;;;;2.57;2.00;;;16.20;59.50;;;;;;941856;149;27412;-74
2022/08/29 03:09:56;;;;;;;2.23;1.73;;;16.20;59.60;;;;;;939776;149;27342;-74
2022/08/29 03:12:23;;;;;;;2.37;1.97;;;16.10;59.70;;;;;;941897;149;27342;-74
2022/08/29 03:14:50;;;;;;;3.50;1.63;;;16.10;59.60;;;;;;941375;149;28882;-74
2022/08/29 03:17:16;;;;;;;2.93;1.83;;;16.10;59.70;;;;;;941522;149;27371;-74
2022/08/29 03:19:43;;;;;;;4.60;1.67;;;16.10;59.80;;;;;;941337;149;27388;-74
2022/08/29 03:22:09;;;;;;;4.37;1.80;;;16.10;59.80;;;;;;942119;149;27399;-74
2022/08/29 03:24:36;;;;;;;2.90;1.70;;;16.10;59.80;;;;;;941171;148;27325;-74
2022/08/29 03:27:02;;;;;;;3.43;1.93;;;16.10;59.90;;;;;;942367;149;27377;-74
2022/08/29 03:29:29;;;;;;;2.80;1.83;;;16.10;60.00;;;;;;941184;149;27342;-73
2022/08/29 03:31:57;;;;;;;2.52;1.80;;;16.10;60.70;;;;;;941406;149;27338;-74
2022/08/29 03:34:22;;;;;;;3.40;1.67;;;16.10;60.00;;;;;;940681;149;27720;-74
2022/08/29 03:36:49;;;;;;;2.07;1.40;;;16.10;60.00;;;;;;942073;149;27270;-74
2022/08/29 03:39:15;;;;;;;1.87;1.47;;;16.10;60.00;;;;;;939808;149;27334;-74
2022/08/29 03:41:42;;;;;;;1.60;1.50;;;16.10;60.00;;;;;;942393;149;27424;-74
2022/08/29 03:44:08;;;;;;;1.40;1.30;;;16.00;60.10;;;;;;941907;149;27376;-74
2022/08/29 03:46:36;;;;;;;6.70;2.67;;;16.00;60.10;;;;;;942000;149;27344;-74
2022/08/29 03:49:02;;;;;;;2.37;1.50;;;16.00;60.20;;;;;;940557;149;27413;-74
2022/08/29 03:51:30;;;;;;;3.03;1.43;;;16.00;60.30;;;;;;941905;149;27330;-74
2022/08/29 03:53:55;;;;;;;2.37;1.83;;;16.00;60.30;;;;;;942249;149;27372;-74
2022/08/29 03:56:21;;;;;;;2.40;1.50;;;15.90;60.40;;;;;;942128;149;27374;-74
2022/08/29 03:58:49;;;;;;;2.30;1.60;;;15.90;60.40;;;;;;941151;149;28236;-74
2022/08/29 04:01:16;;;;;;;2.70;1.33;;;15.90;60.60;;;;;;941544;149;27414;-73
2022/08/29 04:03:41;;;;;;;2.20;1.27;;;15.90;60.60;;;;;;941540;149;27391;-74
2022/08/29 04:06:08;;;;;;;2.23;1.60;;;15.80;60.60;;;;;;941635;149;27361;-74
2022/08/29 04:08:34;;;;;;;2.23;1.80;;;15.80;60.70;;;;;;941584;149;27360;-74
2022/08/29 04:11:02;;;;;;;3.90;1.73;;;15.70;60.70;;;;;;942256;149;27334;-74
2022/08/29 04:13:28;;;;;;;3.60;1.80;;;15.70;60.70;;;;;;941143;149;27356;-74
2022/08/29 04:15:55;;;;;;;1.97;1.77;;;15.60;60.80;;;;;;942440;149;27320;-74
2022/08/29 04:18:21;;;;;;;3.50;1.43;;;15.60;60.90;;;;;;941195;149;27413;-74
2022/08/29 04:20:48;;;;;;;2.07;1.57;;;15.60;60.90;;;;;;942654;149;27407;-74
2022/08/29 04:23:14;;;;;;;3.00;1.90;;;15.60;61.00;;;;;;941319;149;27485;-74
2022/08/29 04:25:41;;;;;;;1.70;1.60;;;15.60;61.20;;;;;;940664;149;27379;-74
2022/08/29 04:28:07;;;;;;;1.50;1.40;;;15.60;61.40;;;;;;941009;149;27356;-74
2022/08/29 04:30:34;;;;;;;4.03;2.00;;;15.60;61.30;;;;;;940759;149;27431;-74
2022/08/29 04:33:01;;;;;;;1.80;1.63;;;15.60;61.40;;;;;;941920;149;27301;-74
2022/08/29 04:35:27;;;;;;;3.90;1.73;;;15.60;61.40;;;;;;941181;149;27357;-74
2022/08/29 04:37:54;;;;;;;3.60;2.07;;;15.60;61.50;;;;;;941478;149;27886;-74
2022/08/29 04:40:20;;;;;;;4.23;1.70;;;15.60;61.70;;;;;;943233;148;27361;-74
2022/08/29 04:42:47;;;;;;;2.97;1.83;;;15.60;61.70;;;;;;929547;149;27339;-74
2022/08/29 04:45:14;;;;;;;3.67;1.80;;;15.60;61.80;;;;;;944235;148;27446;-74
2022/08/29 04:47:40;;;;;;;3.00;1.90;;;15.60;61.70;;;;;;941583;149;27361;-74
2022/08/29 04:50:07;;;;;;;3.73;2.00;;;15.60;61.80;;;;;;940764;149;27395;-74
2022/08/29 04:52:33;;;;;;;2.70;1.90;;;15.60;61.80;;;;;;941629;149;27356;-74
2022/08/29 04:55:00;;;;;;;3.10;1.83;;;15.60;62.00;;;;;;942265;149;27405;-74
2022/08/29 04:57:27;;;;;;;3.17;2.10;;;15.60;62.00;;;;;;940924;149;27467;-74
2022/08/29 04:59:57;;;;;;;2.10;1.83;;;15.60;62.00;;;;;;941908;149;27443;-74
2022/08/29 05:02:23;;;;;;;2.43;1.67;;;15.70;62.10;;;;;;940231;149;27341;-73
2022/08/29 05:04:52;;;;;;;2.43;1.93;;;15.70;62.30;;;;;;941735;149;27386;-74
2022/08/29 05:07:24;;;;;;;4.73;2.20;;;15.80;62.70;;;;;;941933;149;27342;-74
2022/08/29 05:09:57;;;;;;;3.10;1.90;;;15.90;62.90;;;;;;941920;149;27442;-74
2022/08/29 05:12:24;;;;;;;2.60;2.15;;;16.10;63.30;;;;;;939083;149;28824;-74
2022/08/29 05:14:50;;;;;;;3.17;1.77;;;16.40;63.70;;;;;;941568;149;27414;-74
2022/08/29 05:17:17;;;;;;;3.05;1.62;;;16.70;63.60;;;;;;941953;149;27330;-74
2022/08/29 05:19:43;;;;;;;3.25;1.77;;;17.10;63.60;;;;;;941979;149;27364;-74
2022/08/29 05:22:10;;;;;;;1.70;1.57;;;17.40;63.40;;;;;;941329;149;27820;-74
2022/08/29 05:24:36;;;;;;;2.20;2.00;;;17.80;63.20;;;;;;941443;149;27342;-74
2022/08/29 05:27:06;;;;;;;2.27;1.90;;;18.30;62.90;;;;;;942508;149;27326;-74
2022/08/29 05:29:33;;;;;;;1.75;1.42;;;18.80;62.40;;;;;;939842;149;27347;-74
2022/08/29 05:31:59;;;;;;;2.40;1.82;;;19.30;61.80;;;;;;942356;149;27357;-74
2022/08/29 05:34:26;;;;;;;3.35;1.82;;;19.70;61.20;;;;;;940908;149;27439;-74
2022/08/29 05:36:52;;;;;;;2.55;1.47;;;20.20;60.50;;;;;;941750;149;28669;-73
2022/08/29 05:39:19;;;;;;;3.00;1.75;;;20.70;60.00;;;;;;940889;149;27419;-74
2022/08/29 05:41:46;;;;;;;3.72;2.20;;;21.20;59.40;;;;;;941734;149;27414;-75
2022/08/29 05:44:12;;;;;;;3.02;1.70;;;21.70;58.80;;;;;;941585;149;27270;-75
2022/08/29 05:46:39;;;;;;;3.62;1.90;;;22.20;58.30;;;;;;940677;149;27459;-74
2022/08/29 05:49:05;;;;;;;2.05;1.85;;;22.70;57.70;;;;;;941070;149;27439;-75
2022/08/29 05:51:32;;;;;;;2.33;1.82;;;23.20;57.10;;;;;;941746;149;27492;-75
2022/08/29 05:53:59;;;;;;;2.33;1.70;;;23.70;56.30;;;;;;942018;149;27350;-75
2022/08/29 05:56:25;;;;;;;4.03;2.08;;;24.10;55.40;;;;;;939785;149;27335;-75
2022/08/29 05:58:52;;;;;;;2.90;2.30;;;24.50;54.60;;;;;;941638;149;27479;-75
2022/08/29 06:01:24;;;;;;;1.87;1.55;;;24.90;54.00;;;;;;941968;149;27352;-75
2022/08/29 06:03:51;;;;;;;2.67;1.52;;;25.10;53.20;;;;;;941155;149;27425;-75
2022/08/29 06:06:20;;;;;;;2.58;1.82;;;25.40;52.80;;;;;;932111;149;27343;-75
2022/08/29 06:08:46;;;;;;;4.87;1.80;;;25.70;52.40;;;;;;929237;152;27446;-75
2022/08/29 06:11:13;;;;;;;1.90;1.70;;;26.00;52.10;;;;;;928361;154;28168;-75
2022/08/29 06:13:40;;;;;;;3.98;2.12;;;26.30;51.80;;;;;;926526;154;27373;-75
2022/08/29 06:16:06;;;;;;;3.30;2.00;;;26.70;51.50;;;;;;944123;151;27326;-75
2022/08/29 06:18:33;;;;;;;2.92;1.92;;;27.00;51.10;;;;;;944364;151;27266;-75
2022/08/29 06:20:59;;;;;;;4.25;1.95;;;27.40;50.60;;;;;;929069;151;27490;-75
2022/08/29 06:23:26;;;;;;;3.00;2.20;;;27.80;50.00;;;;;;943775;151;27357;-75
2022/08/29 06:25:58;;;;;;;2.62;1.70;;;28.10;49.30;;;;;;932795;151;27320;-75
2022/08/29 06:28:28;;;;;;;3.52;2.20;;;28.50;49.10;;;;;;928578;154;27446;-75
2022/08/29 06:30:54;;;;;;;1.87;1.65;;;28.80;48.70;;;;;;929247;154;27355;-75
2022/08/29 06:33:21;;;;;;;3.25;1.72;;;29.20;48.60;;;;;;927508;149;27399;-75
2022/08/29 06:35:48;;;;;;;2.47;1.72;;;29.60;48.10;;;;;;929912;154;27428;-75
2022/08/29 06:38:14;;;;;;;3.22;1.80;;;30.10;48.00;;;;;;928568;154;27419;-75
2022/08/29 06:40:41;;;;;;;3.17;2.00;;;30.50;47.30;;;;;;945882;151;26264;-75
2022/08/29 06:43:07;;;;;;;3.08;1.87;;;31.00;46.90;;;;;;944220;151;27441;-75
2022/08/29 06:45:34;;;;;;;3.12;1.62;;;31.50;46.40;;;;;;940741;150;27427;-75
2022/08/29 06:48:01;;;;;;;3.27;1.82;;;32.10;45.50;;;;;;939488;152;27436;-76
2022/08/29 06:50:27;;;;;;;2.95;1.67;;;32.50;44.70;;;;;;940618;150;27438;-75
2022/08/29 06:52:54;;;;;;;2.83;2.10;;;33.00;44.20;;;;;;941127;152;27315;-76
2022/08/29 06:55:20;;;;;;;4.15;2.00;;;33.40;43.70;;;;;;940054;149;27314;-76
2022/08/29 06:57:47;;;;;;;3.20;1.72;;;33.80;43.10;;;;;;929278;152;27357;-76
2022/08/29 07:00:14;;;;;;;2.65;1.45;;;34.20;42.60;;;;;;928539;151;27369;-76
2022/08/29 07:02:40;;;;;;;2.65;1.95;;;34.50;41.80;;;;;;944585;151;27864;-76
2022/08/29 07:05:07;;;;;;;3.95;1.57;;;34.90;41.60;;;;;;943942;151;27407;-76
2022/08/29 07:07:33;;;;;;;1.87;1.62;;;35.30;41.10;;;;;;943599;151;26831;-76
2022/08/29 07:10:00;;;;;;;2.85;1.75;;;35.60;40.40;;;;;;943528;151;26280;-76
2022/08/29 07:12:26;;;;;;;3.02;1.75;;;35.90;39.60;;;;;;943150;151;27417;-76
2022/08/29 07:14:53;;;;;;;2.95;1.90;;;36.10;39.40;;;;;;944640;151;27370;-76
2022/08/29 07:17:20;;;;;;;2.45;1.57;;;36.30;38.70;;;;;;944168;151;27325;-76
2022/08/29 07:19:47;;;;;;;2.05;1.37;;;36.30;38.20;;;;;;943338;151;27420;-76
2022/08/29 07:22:13;;;;;;;2.25;1.55;;;36.40;38.10;;;;;;944452;151;27325;-76
2022/08/29 07:24:39;;;;;;;2.83;1.60;;;36.60;37.90;;;;;;945350;151;26291;-76
2022/08/29 07:27:08;;;;;;;2.55;1.70;;;36.70;37.80;;;;;;945263;151;26251;-76
2022/08/29 07:29:33;;;;;;;1.82;1.50;;;37.00;37.60;;;;;;943048;151;26314;-76
2022/08/29 07:32:00;;;;;;;5.75;1.80;;;37.10;37.30;;;;;;944015;151;26521;-76
2022/08/29 07:34:26;;;;;;;2.67;1.67;;;37.40;37.10;;;;;;944263;151;26330;-76
2022/08/29 07:36:52;;;;;;;3.98;2.47;;;37.70;37.00;;;;;;944920;151;26245;-76
2022/08/29 07:39:19;;;;;;;1.62;1.50;;;38.00;36.30;;;;;;944141;151;26291;-76
2022/08/29 07:41:45;;;;;;;2.87;1.60;;;38.30;35.90;;;;;;944964;151;26289;-76
2022/08/29 07:44:12;;;;;;;3.37;1.70;;;38.60;35.70;;;;;;944811;151;26235;-76
2022/08/29 07:46:39;;;;;;;3.08;1.50;;;38.90;35.40;;;;;;944684;151;26220;-76
2022/08/29 07:49:06;;;;;;;2.50;1.70;;;39.20;35.00;;;;;;943628;151;26311;-76
2022/08/29 07:51:32;;;;;;;1.72;1.57;;;39.40;34.20;;;;;;944907;151;26283;-76
2022/08/29 07:53:58;;;;;;;2.58;1.70;;;39.70;33.90;;;;;;943168;151;26267;-77
2022/08/29 07:56:25;;;;;;;1.92;1.60;;;39.90;33.30;;;;;;944309;151;27739;-76
2022/08/29 07:58:52;;;;;;;3.75;2.00;;;40.10;33.20;;;;;;943080;151;26237;-77
2022/08/29 08:01:18;;;;;;;2.75;1.72;;;40.20;32.60;;;;;;944486;151;26390;-77
2022/08/29 08:03:45;;;;;;;2.72;1.60;;;40.30;32.30;;;;;;944435;151;26366;-77
2022/08/29 08:06:11;;;;;;;4.80;1.67;;;40.40;32.00;;;;;;944588;149;26356;-77
2022/08/29 08:08:38;;;;;;;3.37;1.85;;;40.50;31.60;;;;;;943033;149;26341;-77
2022/08/29 08:11:05;;;;;;;2.62;1.60;;;40.50;31.40;;;;;;943718;149;26217;-76
2022/08/29 08:13:31;;;;;;;4.22;2.50;;;40.50;31.20;;;;;;943678;149;26257;-76
2022/08/29 08:15:58;;;;;;;2.98;1.80;;;40.50;31.00;;;;;;944028;149;26230;-77
2022/08/29 08:18:24;;;;;;;2.27;2.08;;;40.50;30.80;;;;;;942794;149;26346;-77
2022/08/29 08:20:51;;;;;;;3.12;1.90;;;40.50;30.60;;;;;;943823;149;26370;-77
2022/08/29 08:23:18;;;;;;;1.62;1.47;;;40.30;30.10;;;;;;943034;149;27355;-77
2022/08/29 08:25:44;;;;;;;3.20;1.92;;;40.20;30.10;;;;;;943879;149;26208;-77
2022/08/29 08:28:13;;;;;;;2.50;1.42;;;40.00;30.10;;;;;;943626;149;26331;-76
2022/08/29 08:30:40;;;;;;;2.00;1.70;;;39.90;30.30;;;;;;943455;149;27370;-77
2022/08/29 08:33:07;;;;;;;2.30;1.70;;;39.80;30.30;;;;;;944150;149;26711;-77
2022/08/29 08:35:33;;;;;;;1.47;1.25;;;39.80;30.30;;;;;;943191;149;26249;-77
2022/08/29 08:38:00;;;;;;;2.47;1.62;;;39.80;30.20;;;;;;943289;149;26291;-77
2022/08/29 08:40:27;;;;;;;3.12;2.05;;;39.80;30.00;;;;;;943128;149;27525;-77
2022/08/29 08:42:59;;;;;;;2.30;1.42;;;39.70;30.00;;;;;;943546;149;26388;-77
2022/08/29 08:45:25;;;;;;;2.62;2.00;;;39.70;29.90;;;;;;943055;149;26310;-76
2022/08/29 08:47:49;;;;;;;3.67;1.52;;;39.60;29.90;;;;;;941369;149;26256;-77
2022/08/29 08:50:40;;;;;;;2.10;1.87;;;39.50;29.90;;;;;;943152;149;26245;-77
2022/08/29 08:53:40;;;;;;;2.75;1.62;;;39.40;29.80;;;;;;943542;149;26236;-77
2022/08/29 08:56:31;;;;;;;5.28;1.80;;;39.20;29.80;;;;;;943668;149;26326;-77
2022/08/29 08:59:06;;;;;;;3.35;1.72;;;39.10;30.00;;;;;;943241;149;26279;-76
2022/08/29 09:01:35;;;;;;;4.60;2.00;;;38.90;30.00;;;;;;942414;149;26403;-76
2022/08/29 09:04:29;;;;;;;3.00;1.95;;;38.90;30.00;;;;;;942335;149;26586;-76
2022/08/29 09:07:05;;;;;;;3.33;1.57;;;38.80;30.00;;;;;;942946;149;26272;-76
2022/08/29 09:10:02;;;;;;;2.75;2.00;;;38.80;29.70;;;;;;944211;151;26264;-76
2022/08/29 09:12:40;;;;;;;2.25;1.80;;;38.70;29.70;;;;;;944748;151;26329;-76
2022/08/29 09:15:12;;;;;;;3.00;1.80;;;38.50;29.60;;;;;;944234;151;26809;-76
2022/08/29 09:17:48;;;;;;;3.05;1.90;;;38.30;29.70;;;;;;942658;151;26368;-76
2022/08/29 09:20:17;;;;;;;2.20;1.60;;;38.20;29.80;;;;;;943500;151;26251;-76
2022/08/29 09:22:44;;;;;;;2.33;1.47;;;38.10;29.80;;;;;;943208;151;27434;-76
2022/08/29 09:25:11;;;;;;;3.92;1.95;;;38.00;29.80;;;;;;943622;151;26723;-76
2022/08/29 09:27:37;;;;;;;3.42;1.75;;;37.90;30.00;;;;;;944878;151;26259;-76
2022/08/29 09:30:07;;;;;;;2.55;1.85;;;37.80;29.70;;;;;;943556;151;26245;-76
2022/08/29 09:32:34;;;;;;;2.35;1.40;;;37.70;29.80;;;;;;944268;151;26344;-76
2022/08/29 09:35:00;;;;;;;4.03;2.10;;;37.60;29.60;;;;;;945060;151;26255;-76
2022/08/29 09:37:30;;;;;;;2.55;1.67;;;37.40;29.50;;;;;;941601;151;27466;-76
2022/08/29 09:40:06;;;;;;;2.77;1.80;;;37.10;29.50;;;;;;943625;151;26288;-76
2022/08/29 09:42:34;;;;;;;1.57;1.47;;;36.90;30.00;;;;;;945083;151;27417;-76
2022/08/29 09:45:01;;;;;;;2.35;1.47;;;36.50;29.60;;;;;;945467;151;27359;-76
2022/08/29 09:47:27;;;;;;;2.42;1.70;;;36.20;29.70;;;;;;943953;151;27288;-76
2022/08/29 09:50:09;;;;;;;3.00;2.00;;;36.00;29.40;;;;;;945122;151;27454;-76
2022/08/29 09:52:35;;;;;;;1.82;1.37;;;35.70;30.10;;;;;;944752;151;28196;-76
2022/08/29 09:55:17;;;;;;;2.30;1.70;;;35.60;30.40;;;;;;943738;151;27337;-76
2022/08/29 09:57:43;;;;;;;1.80;1.55;;;35.50;30.50;;;;;;937579;151;27336;-76
2022/08/29 10:00:13;;;;;;;3.98;1.80;;;35.40;30.60;;;;;;943434;151;27346;-76
2022/08/29 10:02:42;;;;;;;2.83;1.77;;;35.20;30.90;;;;;;944555;151;27462;-76
2022/08/29 10:05:11;;;;;;;2.37;1.57;;;35.20;31.00;;;;;;944678;151;28335;-76
2022/08/29 10:07:45;;;;;;;2.35;1.65;;;35.20;31.00;;;;;;942264;151;27406;-76
2022/08/29 10:10:11;;;;;;;3.37;1.90;;;35.30;31.00;;;;;;944624;151;27291;-76
2022/08/29 10:12:38;;;;;;;3.37;1.92;;;35.30;30.60;;;;;;944067;151;27451;-76
2022/08/29 10:15:04;;;;;;;3.67;1.80;;;35.30;30.60;;;;;;919355;151;27438;-76
2022/08/29 10:20:40;;;;;;;3.05;1.75;;;35.10;30.40;;;;;;944180;151;27322;-76
2022/08/29 10:23:06;;;;;;;2.12;1.52;;;35.00;30.40;;;;;;944605;151;27393;-76
2022/08/29 10:25:36;;;;;;;2.58;2.00;;;34.90;30.30;;;;;;943524;151;27416;-76
2022/08/29 10:28:21;;;;;;;2.92;2.12;;;34.70;30.20;;;;;;941552;151;27369;-76
2022/08/29 10:30:50;;;;;;;5.53;1.90;;;34.50;30.50;;;;;;943808;151;27366;-77
2022/08/29 10:33:26;;;;;;;2.65;1.75;;;34.30;30.50;;;;;;943450;151;27350;-77
2022/08/29 10:35:56;;;;;;;2.98;1.80;;;34.20;30.60;;;;;;943348;151;27812;-77
2022/08/29 10:38:39;;;;;;;2.33;1.72;;;34.00;30.50;;;;;;943550;151;27699;-77
2022/08/29 10:41:44;;;;;;;2.77;1.82;;;33.80;30.40;;;;;;943902;151;27425;-77
2022/08/29 10:44:28;;;;;;;3.40;1.67;;;33.50;30.60;;;;;;945043;151;27427;-77
2022/08/29 10:47:01;;;;;;;5.28;1.52;;;33.30;30.90;;;;;;945636;151;27345;-77
2022/08/29 10:49:39;;;;;;;2.22;1.75;;;33.00;31.10;;;;;;924504;151;27373;-77
2022/08/29 10:52:25;;;;;;;3.08;1.82;;;32.80;31.20;;;;;;943602;151;27330;-76
2022/08/29 10:54:54;;;;;;;3.77;2.00;;;32.60;31.40;;;;;;944399;151;27604;-77
2022/08/29 10:57:26;;;;;;;1.87;1.60;;;32.40;31.50;;;;;;943793;151;27409;-77
2022/08/29 10:59:56;;;;;;;2.15;1.80;;;32.20;31.70;;;;;;943818;151;27346;-77
2022/08/29 11:02:31;;;;;;;2.75;1.50;;;32.00;31.70;;;;;;941489;151;27354;-77
2022/08/29 11:04:58;;;;;;;3.17;1.47;;;31.90;32.00;;;;;;943851;151;27342;-77
2022/08/29 11:07:37;;;;;;;2.65;1.72;;;31.80;32.10;;;;;;943811;151;27317;-77
2022/08/29 11:10:09;;;;;;;2.98;1.62;;;31.70;32.10;;;;;;942309;149;27436;-77
2022/08/29 11:12:44;;;;;;;3.42;1.80;;;31.70;32.20;;;;;;942891;149;27335;-77
2022/08/29 11:15:26;;;;;;;2.22;1.47;;;31.50;32.20;;;;;;939520;149;27361;-77
2022/08/29 11:17:55;;;;;;;2.05;1.50;;;31.40;32.30;;;;;;942667;149;27398;-77
2022/08/29 11:20:23;;;;;;;2.08;1.45;;;31.30;32.30;;;;;;941110;149;27418;-77
2022/08/29 11:23:01;;;;;;;2.75;1.60;;;31.20;32.40;;;;;;942786;149;27354;-77
2022/08/29 11:25:27;;;;;;;1.95;1.50;;;31.10;32.60;;;;;;942538;149;27391;-77
2022/08/29 11:27:56;;;;;;;1.50;1.40;;;31.10;32.70;;;;;;943083;149;27338;-77
2022/08/29 11:30:44;;;;;;;2.08;1.62;;;31.00;32.60;;;;;;942064;149;27480;-77
2022/08/29 11:33:32;;;;;;;2.08;1.52;;;30.90;32.70;;;;;;943040;149;27351;-77
2022/08/29 11:36:02;;;;;;;2.10;1.57;;;30.90;33.00;;;;;;943657;149;27411;-77
2022/08/29 11:38:43;;;;;;;3.02;1.70;;;30.90;33.00;;;;;;941832;149;27420;-77
2022/08/29 11:41:10;;;;;;;2.87;1.57;;;30.80;33.10;;;;;;943955;149;27426;-77
2022/08/29 11:43:36;;;;;;;1.90;1.80;;;30.80;33.00;;;;;;944243;149;27378;-77
2022/08/29 11:46:03;;;;;;;3.42;1.90;;;30.80;33.10;;;;;;942501;149;27343;-77
2022/08/29 11:48:45;;;;;;;1.67;1.57;;;30.80;33.30;;;;;;943179;149;28002;-77
2022/08/29 11:51:33;;;;;;;2.00;1.80;;;30.80;33.40;;;;;;943731;149;27330;-77
2022/08/29 11:54:24;;;;;;;2.17;1.67;;;30.80;33.40;;;;;;940492;149;27334;-77
2022/08/29 11:56:50;;;;;;;1.80;1.70;;;30.80;33.40;;;;;;942846;149;27341;-77
2022/08/29 11:59:48;;;;;;;2.77;1.45;;;30.90;33.40;;;;;;939280;149;27455;-77
2022/08/29 12:02:27;;;;;;;1.52;1.40;;;30.90;33.40;;;;;;942825;149;27432;-77
2022/08/29 12:04:54;;;;;;;2.65;1.67;;;30.90;33.30;;;;;;942126;149;27366;-77
2022/08/29 12:07:21;;;;;;;1.80;1.70;;;30.90;33.40;;;;;;941415;149;27345;-77
2022/08/29 12:09:53;;;;;;;2.30;1.77;;;30.90;33.40;;;;;;942369;149;27381;-77
2022/08/29 12:12:19;;;;;;;3.40;1.60;;;30.90;33.40;;;;;;943073;151;27406;-77
2022/08/29 12:14:46;;;;;;;2.47;1.70;;;30.90;33.50;;;;;;940057;151;27826;-77
2022/08/29 12:17:18;;;;;;;1.62;1.52;;;30.90;33.40;;;;;;943637;151;27467;-77
2022/08/29 12:19:46;;;;;;;2.70;2.00;;;30.90;33.60;;;;;;943986;151;27439;-77
2022/08/29 12:22:12;;;;;;;1.95;1.75;;;30.90;33.60;;;;;;942734;151;27455;-77
2022/08/29 12:24:38;;;;;;;1.85;1.60;;;30.80;33.40;;;;;;939857;151;27342;-77
2022/08/29 12:27:05;;;;;;;2.83;2.02;;;30.70;33.30;;;;;;942611;151;27302;-77
2022/08/29 12:29:32;;;;;;;3.77;1.87;;;30.70;33.30;;;;;;940965;151;27855;-77
2022/08/29 12:32:25;;;;;;;3.27;2.00;;;30.60;33.50;;;;;;944291;151;27361;-77
2022/08/29 12:35:16;;;;;;;3.70;1.80;;;30.40;33.60;;;;;;941968;151;27446;-76
2022/08/29 12:37:52;;;;;;;1.67;1.55;;;30.40;33.70;;;;;;943972;151;27370;-77
2022/08/29 12:40:19;;;;;;;2.08;1.57;;;30.30;33.80;;;;;;944072;151;27516;-77
2022/08/29 12:43:13;;;;;;;3.05;1.52;;;30.20;34.00;;;;;;943980;151;27295;-77
2022/08/29 12:45:39;;;;;;;3.42;1.60;;;30.20;34.10;;;;;;944787;151;27309;-77
2022/08/29 12:48:06;;;;;;;3.67;1.80;;;30.20;34.20;;;;;;942967;151;27353;-77
2022/08/29 12:50:43;;;;;;;2.62;1.45;;;30.20;34.10;;;;;;943398;151;27333;-77
2022/08/29 12:53:28;;;;;;;5.20;1.72;;;30.20;34.10;;;;;;944265;151;27494;-76
2022/08/29 12:55:53;;;;;;;3.55;1.50;;;30.20;34.00;;;;;;943758;151;27439;-77
2022/08/29 12:58:35;;;;;;;2.55;1.92;;;30.20;34.00;;;;;;942624;151;27471;-76
2022/08/29 13:01:01;;;;;;;3.22;1.90;;;30.20;33.90;;;;;;941667;151;27467;-76
2022/08/29 13:03:28;;;;;;;2.20;1.70;;;30.20;33.90;;;;;;943407;151;27342;-76